sensor_id;sensor_type;location;lat;lon;timestamp;P1;durP1;ratioP1;P2;durP2;ratioP2
7621;SDS011;3852;52.284;8.032;2022-08-25T00:01:46;2.70;;;2.20;;
7621;SDS011;3852;52.284;8.032;2022-08-25T00:04:20;3.97;;;2.60;;
7621;SDS011;3852;52.284;8.032;2022-08-25T00:06:46;3.27;;;2.43;;
7621;SDS011;3852;52.284;8.032;2022-08-25T00:09:14;3.23;;;2.50;;
7621;SDS011;3852;52.284;8.032;2022-08-25T00:11:44;4.90;;;2.60;;
7621;SDS011;3852;52.284;8.032;2022-08-25T00:14:14;4.47;;;2.60;;
7621;SDS011;3852;52.284;8.032;2022-08-25T00:16:44;2.90;;;2.60;;
7621;SDS011;3852;52.284;8.032;2022-08-25T00:19:12;4.50;;;2.43;;
7621;SDS011;3852;52.284;8.032;2022-08-25T00:21:45;3.03;;;2.73;;
7621;SDS011;3852;52.284;8.032;2022-08-25T00:24:12;2.93;;;2.30;;
7621;SDS011;3852;52.284;8.032;2022-08-25T00:26:41;6.17;;;2.57;;
7621;SDS011;3852;52.284;8.032;2022-08-25T00:29:10;3.80;;;2.37;;
7621;SDS011;3852;52.284;8.032;2022-08-25T00:31:37;4.33;;;2.60;;
7621;SDS011;3852;52.284;8.032;2022-08-25T00:34:05;2.40;;;2.20;;
7621;SDS011;3852;52.284;8.032;2022-08-25T00:36:38;4.00;;;2.77;;
7621;SDS011;3852;52.284;8.032;2022-08-25T00:39:06;5.70;;;2.30;;
7621;SDS011;3852;52.284;8.032;2022-08-25T00:41:33;2.57;;;2.37;;
7621;SDS011;3852;52.284;8.032;2022-08-25T00:44:02;3.77;;;2.60;;
7621;SDS011;3852;52.284;8.032;2022-08-25T00:46:33;2.50;;;2.30;;
7621;SDS011;3852;52.284;8.032;2022-08-25T00:49:14;2.60;;;2.40;;
7621;SDS011;3852;52.284;8.032;2022-08-25T00:51:46;3.27;;;2.40;;
7621;SDS011;3852;52.284;8.032;2022-08-25T00:54:28;4.20;;;2.70;;
7621;SDS011;3852;52.284;8.032;2022-08-25T00:57:04;3.10;;;2.40;;
7621;SDS011;3852;52.284;8.032;2022-08-25T00:59:32;4.73;;;2.40;;
7621;SDS011;3852;52.284;8.032;2022-08-25T01:01:59;2.53;;;2.33;;
7621;SDS011;3852;52.284;8.032;2022-08-25T01:04:26;2.90;;;2.20;;
7621;SDS011;3852;52.284;8.032;2022-08-25T01:06:52;2.60;;;2.40;;
7621;SDS011;3852;52.284;8.032;2022-08-25T01:09:19;2.97;;;2.43;;
7621;SDS011;3852;52.284;8.032;2022-08-25T01:11:45;3.33;;;2.40;;
7621;SDS011;3852;52.284;8.032;2022-08-25T01:14:12;3.73;;;2.30;;
7621;SDS011;3852;52.284;8.032;2022-08-25T01:16:42;2.80;;;2.60;;
7621;SDS011;3852;52.284;8.032;2022-08-25T01:19:09;4.13;;;3.10;;
7621;SDS011;3852;52.284;8.032;2022-08-25T01:21:39;2.70;;;2.50;;
7621;SDS011;3852;52.284;8.032;2022-08-25T01:24:09;2.60;;;2.37;;
7621;SDS011;3852;52.284;8.032;2022-08-25T01:26:52;2.90;;;2.57;;
7621;SDS011;3852;52.284;8.032;2022-08-25T01:29:18;2.90;;;2.70;;
7621;SDS011;3852;52.284;8.032;2022-08-25T01:32:03;2.63;;;2.43;;
7621;SDS011;3852;52.284;8.032;2022-08-25T01:34:34;3.63;;;2.77;;
7621;SDS011;3852;52.284;8.032;2022-08-25T01:37:05;2.57;;;2.40;;
7621;SDS011;3852;52.284;8.032;2022-08-25T01:39:32;2.60;;;2.40;;
7621;SDS011;3852;52.284;8.032;2022-08-25T01:45:07;3.47;;;3.10;;
7621;SDS011;3852;52.284;8.032;2022-08-25T01:47:34;2.40;;;2.20;;
7621;SDS011;3852;52.284;8.032;2022-08-25T01:50:02;3.00;;;2.70;;
7621;SDS011;3852;52.284;8.032;2022-08-25T01:52:36;4.37;;;3.03;;
7621;SDS011;3852;52.284;8.032;2022-08-25T01:55:18;3.00;;;2.67;;
7621;SDS011;3852;52.284;8.032;2022-08-25T01:57:45;2.70;;;2.50;;
7621;SDS011;3852;52.284;8.032;2022-08-25T02:00:11;2.80;;;2.60;;
7621;SDS011;3852;52.284;8.032;2022-08-25T02:02:38;3.07;;;2.53;;
7621;SDS011;3852;52.284;8.032;2022-08-25T02:05:06;2.90;;;2.60;;
7621;SDS011;3852;52.284;8.032;2022-08-25T02:07:34;3.23;;;3.00;;
7621;SDS011;3852;52.284;8.032;2022-08-25T02:10:03;2.97;;;2.77;;
7621;SDS011;3852;52.284;8.032;2022-08-25T02:12:30;3.07;;;2.87;;
7621;SDS011;3852;52.284;8.032;2022-08-25T02:14:58;3.13;;;2.80;;
7621;SDS011;3852;52.284;8.032;2022-08-25T02:17:26;3.40;;;2.87;;
7621;SDS011;3852;52.284;8.032;2022-08-25T02:19:53;2.73;;;2.53;;
7621;SDS011;3852;52.284;8.032;2022-08-25T02:22:22;3.07;;;2.67;;
7621;SDS011;3852;52.284;8.032;2022-08-25T02:24:48;4.47;;;2.67;;
7621;SDS011;3852;52.284;8.032;2022-08-25T02:27:14;3.43;;;2.60;;
7621;SDS011;3852;52.284;8.032;2022-08-25T02:29:40;3.23;;;2.50;;
7621;SDS011;3852;52.284;8.032;2022-08-25T02:32:06;2.80;;;2.60;;
7621;SDS011;3852;52.284;8.032;2022-08-25T02:34:32;3.47;;;2.70;;
7621;SDS011;3852;52.284;8.032;2022-08-25T02:36:59;3.47;;;2.80;;
7621;SDS011;3852;52.284;8.032;2022-08-25T02:39:26;3.93;;;2.63;;
7621;SDS011;3852;52.284;8.032;2022-08-25T02:41:52;4.87;;;2.80;;
7621;SDS011;3852;52.284;8.032;2022-08-25T02:44:17;2.77;;;2.33;;
7621;SDS011;3852;52.284;8.032;2022-08-25T02:46:43;4.63;;;2.80;;
7621;SDS011;3852;52.284;8.032;2022-08-25T02:49:09;5.17;;;2.77;;
7621;SDS011;3852;52.284;8.032;2022-08-25T02:51:35;3.13;;;2.57;;
7621;SDS011;3852;52.284;8.032;2022-08-25T02:54:01;3.07;;;2.77;;
7621;SDS011;3852;52.284;8.032;2022-08-25T02:56:29;3.50;;;2.67;;
7621;SDS011;3852;52.284;8.032;2022-08-25T02:58:58;2.97;;;2.67;;
7621;SDS011;3852;52.284;8.032;2022-08-25T03:01:25;4.13;;;2.80;;
7621;SDS011;3852;52.284;8.032;2022-08-25T03:03:52;3.50;;;2.80;;
7621;SDS011;3852;52.284;8.032;2022-08-25T03:06:19;4.67;;;2.77;;
7621;SDS011;3852;52.284;8.032;2022-08-25T03:08:47;4.20;;;2.57;;
7621;SDS011;3852;52.284;8.032;2022-08-25T03:11:13;4.37;;;3.17;;
7621;SDS011;3852;52.284;8.032;2022-08-25T03:13:39;4.47;;;3.20;;
7621;SDS011;3852;52.284;8.032;2022-08-25T03:16:06;3.53;;;2.77;;
7621;SDS011;3852;52.284;8.032;2022-08-25T03:18:32;2.70;;;2.60;;
7621;SDS011;3852;52.284;8.032;2022-08-25T03:20:59;3.00;;;2.80;;
7621;SDS011;3852;52.284;8.032;2022-08-25T03:23:25;3.13;;;2.57;;
7621;SDS011;3852;52.284;8.032;2022-08-25T03:25:54;2.87;;;2.67;;
7621;SDS011;3852;52.284;8.032;2022-08-25T03:28:39;2.60;;;2.40;;
7621;SDS011;3852;52.284;8.032;2022-08-25T03:31:06;4.33;;;2.50;;
7621;SDS011;3852;52.284;8.032;2022-08-25T03:33:33;4.33;;;3.07;;
7621;SDS011;3852;52.284;8.032;2022-08-25T03:35:59;3.60;;;2.87;;
7621;SDS011;3852;52.284;8.032;2022-08-25T03:38:26;4.27;;;2.43;;
7621;SDS011;3852;52.284;8.032;2022-08-25T03:40:52;2.87;;;2.67;;
7621;SDS011;3852;52.284;8.032;2022-08-25T03:43:19;3.47;;;2.90;;
7621;SDS011;3852;52.284;8.032;2022-08-25T03:45:45;2.63;;;2.43;;
7621;SDS011;3852;52.284;8.032;2022-08-25T03:48:12;2.70;;;2.50;;
7621;SDS011;3852;52.284;8.032;2022-08-25T03:50:46;2.90;;;2.70;;
7621;SDS011;3852;52.284;8.032;2022-08-25T03:53:15;4.93;;;2.87;;
7621;SDS011;3852;52.284;8.032;2022-08-25T03:55:41;3.43;;;3.20;;
7621;SDS011;3852;52.284;8.032;2022-08-25T03:58:07;3.30;;;3.00;;
7621;SDS011;3852;52.284;8.032;2022-08-25T04:00:33;4.30;;;2.43;;
7621;SDS011;3852;52.284;8.032;2022-08-25T04:02:59;3.27;;;2.97;;
7621;SDS011;3852;52.284;8.032;2022-08-25T04:05:25;2.70;;;2.50;;
7621;SDS011;3852;52.284;8.032;2022-08-25T04:07:51;3.27;;;2.80;;
7621;SDS011;3852;52.284;8.032;2022-08-25T04:10:17;4.43;;;3.10;;
7621;SDS011;3852;52.284;8.032;2022-08-25T04:12:43;3.33;;;3.03;;
7621;SDS011;3852;52.284;8.032;2022-08-25T04:15:09;2.83;;;2.47;;
7621;SDS011;3852;52.284;8.032;2022-08-25T04:17:36;2.87;;;2.67;;
7621;SDS011;3852;52.284;8.032;2022-08-25T04:20:04;3.43;;;3.00;;
7621;SDS011;3852;52.284;8.032;2022-08-25T04:22:33;3.70;;;3.27;;
7621;SDS011;3852;52.284;8.032;2022-08-25T04:25:00;5.90;;;3.30;;
7621;SDS011;3852;52.284;8.032;2022-08-25T04:27:27;3.33;;;3.03;;
7621;SDS011;3852;52.284;8.032;2022-08-25T04:29:52;4.20;;;2.87;;
7621;SDS011;3852;52.284;8.032;2022-08-25T04:32:18;5.13;;;3.60;;
7621;SDS011;3852;52.284;8.032;2022-08-25T04:34:44;3.43;;;3.10;;
7621;SDS011;3852;52.284;8.032;2022-08-25T04:37:10;5.27;;;3.10;;
7621;SDS011;3852;52.284;8.032;2022-08-25T04:39:36;4.53;;;2.63;;
7621;SDS011;3852;52.284;8.032;2022-08-25T04:42:02;2.90;;;2.70;;
7621;SDS011;3852;52.284;8.032;2022-08-25T04:44:29;3.00;;;2.70;;
7621;SDS011;3852;52.284;8.032;2022-08-25T04:46:56;4.77;;;3.07;;
7621;SDS011;3852;52.284;8.032;2022-08-25T04:49:22;3.63;;;3.03;;
7621;SDS011;3852;52.284;8.032;2022-08-25T04:51:48;3.10;;;2.83;;
7621;SDS011;3852;52.284;8.032;2022-08-25T04:54:14;5.87;;;3.20;;
7621;SDS011;3852;52.284;8.032;2022-08-25T04:56:45;4.23;;;3.10;;
7621;SDS011;3852;52.284;8.032;2022-08-25T04:59:13;3.20;;;2.90;;
7621;SDS011;3852;52.284;8.032;2022-08-25T05:01:40;4.80;;;2.83;;
7621;SDS011;3852;52.284;8.032;2022-08-25T05:04:08;4.17;;;3.77;;
7621;SDS011;3852;52.284;8.032;2022-08-25T05:06:37;4.40;;;3.63;;
7621;SDS011;3852;52.284;8.032;2022-08-25T05:09:03;5.83;;;3.50;;
7621;SDS011;3852;52.284;8.032;2022-08-25T05:11:29;3.47;;;3.17;;
7621;SDS011;3852;52.284;8.032;2022-08-25T05:13:56;3.57;;;3.20;;
7621;SDS011;3852;52.284;8.032;2022-08-25T05:16:25;5.13;;;3.73;;
7621;SDS011;3852;52.284;8.032;2022-08-25T05:18:52;4.90;;;3.77;;
7621;SDS011;3852;52.284;8.032;2022-08-25T05:21:20;5.77;;;3.60;;
7621;SDS011;3852;52.284;8.032;2022-08-25T05:23:52;3.70;;;3.40;;
7621;SDS011;3852;52.284;8.032;2022-08-25T05:26:24;6.50;;;3.60;;
7621;SDS011;3852;52.284;8.032;2022-08-25T05:28:54;4.57;;;3.47;;
7621;SDS011;3852;52.284;8.032;2022-08-25T05:31:20;4.33;;;3.10;;
7621;SDS011;3852;52.284;8.032;2022-08-25T05:33:48;5.10;;;3.43;;
7621;SDS011;3852;52.284;8.032;2022-08-25T05:36:15;5.33;;;3.53;;
7621;SDS011;3852;52.284;8.032;2022-08-25T05:38:42;5.07;;;3.60;;
7621;SDS011;3852;52.284;8.032;2022-08-25T05:41:09;4.57;;;3.23;;
7621;SDS011;3852;52.284;8.032;2022-08-25T05:43:45;4.47;;;3.50;;
7621;SDS011;3852;52.284;8.032;2022-08-25T05:46:13;7.97;;;4.13;;
7621;SDS011;3852;52.284;8.032;2022-08-25T05:48:40;7.67;;;3.50;;
7621;SDS011;3852;52.284;8.032;2022-08-25T05:51:07;4.20;;;3.10;;
7621;SDS011;3852;52.284;8.032;2022-08-25T05:53:37;4.60;;;3.40;;
7621;SDS011;3852;52.284;8.032;2022-08-25T05:56:05;4.53;;;2.73;;
7621;SDS011;3852;52.284;8.032;2022-08-25T05:58:32;5.00;;;3.20;;
7621;SDS011;3852;52.284;8.032;2022-08-25T06:00:58;3.97;;;3.33;;
7621;SDS011;3852;52.284;8.032;2022-08-25T06:03:43;4.33;;;3.20;;
7621;SDS011;3852;52.284;8.032;2022-08-25T06:06:11;4.10;;;3.10;;
7621;SDS011;3852;52.284;8.032;2022-08-25T06:08:38;4.43;;;3.27;;
7621;SDS011;3852;52.284;8.032;2022-08-25T06:11:05;4.80;;;3.10;;
7621;SDS011;3852;52.284;8.032;2022-08-25T06:13:31;5.63;;;2.97;;
7621;SDS011;3852;52.284;8.032;2022-08-25T06:15:58;5.43;;;3.47;;
7621;SDS011;3852;52.284;8.032;2022-08-25T06:18:25;5.07;;;3.50;;
7621;SDS011;3852;52.284;8.032;2022-08-25T06:20:51;3.70;;;3.13;;
7621;SDS011;3852;52.284;8.032;2022-08-25T06:23:17;7.30;;;3.30;;
7621;SDS011;3852;52.284;8.032;2022-08-25T06:25:53;5.50;;;3.57;;
7621;SDS011;3852;52.284;8.032;2022-08-25T06:28:22;4.20;;;3.43;;
7621;SDS011;3852;52.284;8.032;2022-08-25T06:30:48;6.93;;;3.50;;
7621;SDS011;3852;52.284;8.032;2022-08-25T06:33:14;4.40;;;3.30;;
7621;SDS011;3852;52.284;8.032;2022-08-25T06:35:40;7.03;;;3.33;;
7621;SDS011;3852;52.284;8.032;2022-08-25T06:38:07;3.50;;;3.20;;
7621;SDS011;3852;52.284;8.032;2022-08-25T06:40:34;6.37;;;3.10;;
7621;SDS011;3852;52.284;8.032;2022-08-25T06:43:00;4.37;;;3.60;;
7621;SDS011;3852;52.284;8.032;2022-08-25T06:45:25;5.37;;;3.30;;
7621;SDS011;3852;52.284;8.032;2022-08-25T06:47:51;3.93;;;3.10;;
7621;SDS011;3852;52.284;8.032;2022-08-25T06:50:20;4.57;;;3.43;;
7621;SDS011;3852;52.284;8.032;2022-08-25T06:52:46;4.80;;;3.27;;
7621;SDS011;3852;52.284;8.032;2022-08-25T06:55:12;3.83;;;3.40;;
7621;SDS011;3852;52.284;8.032;2022-08-25T06:57:37;5.57;;;3.30;;
7621;SDS011;3852;52.284;8.032;2022-08-25T07:00:04;5.17;;;3.67;;
7621;SDS011;3852;52.284;8.032;2022-08-25T07:02:32;3.73;;;3.43;;
7621;SDS011;3852;52.284;8.032;2022-08-25T07:04:58;5.00;;;4.17;;
7621;SDS011;3852;52.284;8.032;2022-08-25T07:07:24;4.80;;;3.73;;
7621;SDS011;3852;52.284;8.032;2022-08-25T07:09:50;5.97;;;3.80;;
7621;SDS011;3852;52.284;8.032;2022-08-25T07:12:16;6.13;;;3.67;;
7621;SDS011;3852;52.284;8.032;2022-08-25T07:14:42;3.87;;;3.40;;
7621;SDS011;3852;52.284;8.032;2022-08-25T07:17:08;5.97;;;3.80;;
7621;SDS011;3852;52.284;8.032;2022-08-25T07:19:34;3.60;;;3.30;;
7621;SDS011;3852;52.284;8.032;2022-08-25T07:22:00;3.87;;;3.30;;
7621;SDS011;3852;52.284;8.032;2022-08-25T07:24:25;7.47;;;3.67;;
7621;SDS011;3852;52.284;8.032;2022-08-25T07:26:51;4.20;;;3.77;;
7621;SDS011;3852;52.284;8.032;2022-08-25T07:29:19;5.00;;;3.90;;
7621;SDS011;3852;52.284;8.032;2022-08-25T07:31:52;8.50;;;4.17;;
7621;SDS011;3852;52.284;8.032;2022-08-25T07:34:19;6.33;;;4.37;;
7621;SDS011;3852;52.284;8.032;2022-08-25T07:37:03;5.30;;;3.90;;
7621;SDS011;3852;52.284;8.032;2022-08-25T07:39:29;5.53;;;4.07;;
7621;SDS011;3852;52.284;8.032;2022-08-25T07:41:57;8.07;;;5.53;;
7621;SDS011;3852;52.284;8.032;2022-08-25T07:44:23;5.57;;;4.13;;
7621;SDS011;3852;52.284;8.032;2022-08-25T07:46:50;6.90;;;4.30;;
7621;SDS011;3852;52.284;8.032;2022-08-25T07:49:20;5.40;;;3.97;;
7621;SDS011;3852;52.284;8.032;2022-08-25T07:51:47;5.30;;;4.13;;
7621;SDS011;3852;52.284;8.032;2022-08-25T07:54:13;4.93;;;3.93;;
7621;SDS011;3852;52.284;8.032;2022-08-25T07:56:39;5.83;;;4.23;;
7621;SDS011;3852;52.284;8.032;2022-08-25T07:59:07;7.33;;;4.40;;
7621;SDS011;3852;52.284;8.032;2022-08-25T08:01:33;5.57;;;4.27;;
7621;SDS011;3852;52.284;8.032;2022-08-25T08:03:59;7.53;;;4.43;;
7621;SDS011;3852;52.284;8.032;2022-08-25T08:06:25;6.37;;;4.40;;
7621;SDS011;3852;52.284;8.032;2022-08-25T08:08:51;6.20;;;4.17;;
7621;SDS011;3852;52.284;8.032;2022-08-25T08:11:28;5.13;;;4.20;;
7621;SDS011;3852;52.284;8.032;2022-08-25T08:13:59;7.73;;;4.50;;
7621;SDS011;3852;52.284;8.032;2022-08-25T08:16:26;6.50;;;4.40;;
7621;SDS011;3852;52.284;8.032;2022-08-25T08:18:54;6.50;;;4.53;;
7621;SDS011;3852;52.284;8.032;2022-08-25T08:21:22;6.53;;;5.30;;
7621;SDS011;3852;52.284;8.032;2022-08-25T08:23:53;7.03;;;4.67;;
7621;SDS011;3852;52.284;8.032;2022-08-25T08:26:20;8.70;;;4.13;;
7621;SDS011;3852;52.284;8.032;2022-08-25T08:28:47;9.93;;;4.83;;
7621;SDS011;3852;52.284;8.032;2022-08-25T08:31:13;6.50;;;5.00;;
7621;SDS011;3852;52.284;8.032;2022-08-25T08:33:43;6.57;;;4.90;;
7621;SDS011;3852;52.284;8.032;2022-08-25T08:36:11;7.53;;;4.97;;
7621;SDS011;3852;52.284;8.032;2022-08-25T08:38:37;6.23;;;4.70;;
7621;SDS011;3852;52.284;8.032;2022-08-25T08:46:51;8.13;;;5.43;;
7621;SDS011;3852;52.284;8.032;2022-08-25T08:52:49;5.37;;;4.87;;
7621;SDS011;3852;52.284;8.032;2022-08-25T08:55:58;6.40;;;5.47;;
7621;SDS011;3852;52.284;8.032;2022-08-25T09:01:09;7.60;;;5.50;;
7621;SDS011;3852;52.284;8.032;2022-08-25T09:03:42;6.87;;;5.10;;
7621;SDS011;3852;52.284;8.032;2022-08-25T09:06:19;7.20;;;5.13;;
7621;SDS011;3852;52.284;8.032;2022-08-25T09:09:03;7.90;;;5.50;;
7621;SDS011;3852;52.284;8.032;2022-08-25T09:26:51;5.73;;;5.23;;
7621;SDS011;3852;52.284;8.032;2022-08-25T09:32:34;7.73;;;5.93;;
7621;SDS011;3852;52.284;8.032;2022-08-25T09:35:07;8.83;;;5.40;;
7621;SDS011;3852;52.284;8.032;2022-08-25T09:37:41;7.93;;;5.87;;
7621;SDS011;3852;52.284;8.032;2022-08-25T09:40:07;7.70;;;5.23;;
7621;SDS011;3852;52.284;8.032;2022-08-25T09:42:51;6.47;;;5.50;;
7621;SDS011;3852;52.284;8.032;2022-08-25T09:45:29;8.17;;;5.60;;
7621;SDS011;3852;52.284;8.032;2022-08-25T09:51:09;6.47;;;5.30;;
7621;SDS011;3852;52.284;8.032;2022-08-25T09:59:27;6.17;;;5.30;;
7621;SDS011;3852;52.284;8.032;2022-08-25T10:02:00;8.13;;;6.00;;
7621;SDS011;3852;52.284;8.032;2022-08-25T10:04:34;6.40;;;5.47;;
7621;SDS011;3852;52.284;8.032;2022-08-25T10:07:04;7.13;;;6.10;;
7621;SDS011;3852;52.284;8.032;2022-08-25T10:09:50;7.43;;;6.07;;
7621;SDS011;3852;52.284;8.032;2022-08-25T10:12:21;10.67;;;5.87;;
7621;SDS011;3852;52.284;8.032;2022-08-25T10:14:55;5.93;;;5.43;;
7621;SDS011;3852;52.284;8.032;2022-08-25T10:17:28;6.37;;;5.40;;
7621;SDS011;3852;52.284;8.032;2022-08-25T10:22:34;9.60;;;6.10;;
7621;SDS011;3852;52.284;8.032;2022-08-25T10:25:02;7.03;;;5.87;;
7621;SDS011;3852;52.284;8.032;2022-08-25T10:30:34;6.33;;;5.73;;
7621;SDS011;3852;52.284;8.032;2022-08-25T10:36:20;5.93;;;5.30;;
7621;SDS011;3852;52.284;8.032;2022-08-25T10:38:57;6.10;;;5.50;;
7621;SDS011;3852;52.284;8.032;2022-08-25T11:04:59;6.80;;;6.07;;
7621;SDS011;3852;52.284;8.032;2022-08-25T11:08:16;6.73;;;5.37;;
7621;SDS011;3852;52.284;8.032;2022-08-25T11:13:49;7.70;;;6.10;;
7621;SDS011;3852;52.284;8.032;2022-08-25T11:19:42;9.63;;;6.20;;
7621;SDS011;3852;52.284;8.032;2022-08-25T11:30:58;7.20;;;6.07;;
7621;SDS011;3852;52.284;8.032;2022-08-25T11:33:26;6.90;;;6.20;;
7621;SDS011;3852;52.284;8.032;2022-08-25T11:35:58;7.40;;;6.13;;
7621;SDS011;3852;52.284;8.032;2022-08-25T11:38:49;7.20;;;5.63;;
7621;SDS011;3852;52.284;8.032;2022-08-25T11:44:43;6.97;;;5.73;;
7621;SDS011;3852;52.284;8.032;2022-08-25T11:47:40;6.13;;;5.63;;
7621;SDS011;3852;52.284;8.032;2022-08-25T11:52:58;9.13;;;6.37;;
7621;SDS011;3852;52.284;8.032;2022-08-25T12:01:10;6.90;;;6.30;;
7621;SDS011;3852;52.284;8.032;2022-08-25T12:09:31;7.43;;;6.60;;
7621;SDS011;3852;52.284;8.032;2022-08-25T12:11:58;6.60;;;6.00;;
7621;SDS011;3852;52.284;8.032;2022-08-25T12:26:03;9.83;;;6.87;;
7621;SDS011;3852;52.284;8.032;2022-08-25T12:28:52;9.80;;;7.23;;
7621;SDS011;3852;52.284;8.032;2022-08-25T12:37:14;9.63;;;7.70;;
7621;SDS011;3852;52.284;8.032;2022-08-25T12:42:30;8.40;;;7.70;;
7621;SDS011;3852;52.284;8.032;2022-08-25T12:45:08;8.03;;;6.50;;
7621;SDS011;3852;52.284;8.032;2022-08-25T12:47:50;9.80;;;7.87;;
7621;SDS011;3852;52.284;8.032;2022-08-25T12:50:29;7.53;;;6.80;;
7621;SDS011;3852;52.284;8.032;2022-08-25T12:55:51;9.70;;;7.40;;
7621;SDS011;3852;52.284;8.032;2022-08-25T12:58:27;10.80;;;7.33;;
7621;SDS011;3852;52.284;8.032;2022-08-25T13:01:22;8.13;;;7.33;;
7621;SDS011;3852;52.284;8.032;2022-08-25T13:15:26;7.43;;;6.67;;
7621;SDS011;3852;52.284;8.032;2022-08-25T13:18:23;7.90;;;7.20;;
7621;SDS011;3852;52.284;8.032;2022-08-25T13:21:02;7.73;;;6.47;;
7621;SDS011;3852;52.284;8.032;2022-08-25T13:23:47;7.83;;;6.83;;
7621;SDS011;3852;52.284;8.032;2022-08-25T13:26:24;8.87;;;6.90;;
7621;SDS011;3852;52.284;8.032;2022-08-25T13:28:58;7.67;;;6.97;;
7621;SDS011;3852;52.284;8.032;2022-08-25T13:31:59;7.93;;;6.90;;
7621;SDS011;3852;52.284;8.032;2022-08-25T13:34:30;7.53;;;6.90;;
7621;SDS011;3852;52.284;8.032;2022-08-25T13:37:15;7.47;;;6.77;;
7621;SDS011;3852;52.284;8.032;2022-08-25T13:42:47;7.70;;;6.87;;
7621;SDS011;3852;52.284;8.032;2022-08-25T13:45:25;8.17;;;6.93;;
7621;SDS011;3852;52.284;8.032;2022-08-25T13:47:54;7.90;;;7.10;;
7621;SDS011;3852;52.284;8.032;2022-08-25T13:53:00;7.87;;;7.07;;
7621;SDS011;3852;52.284;8.032;2022-08-25T13:55:50;8.93;;;7.03;;
7621;SDS011;3852;52.284;8.032;2022-08-25T13:58:21;7.77;;;6.90;;
7621;SDS011;3852;52.284;8.032;2022-08-25T14:01:00;7.30;;;6.70;;
7621;SDS011;3852;52.284;8.032;2022-08-25T14:03:37;8.20;;;7.03;;
7621;SDS011;3852;52.284;8.032;2022-08-25T14:16:50;8.23;;;6.97;;
7621;SDS011;3852;52.284;8.032;2022-08-25T14:19:24;9.00;;;7.00;;
7621;SDS011;3852;52.284;8.032;2022-08-25T14:21:50;7.70;;;6.57;;
7621;SDS011;3852;52.284;8.032;2022-08-25T14:24:18;8.13;;;7.00;;
7621;SDS011;3852;52.284;8.032;2022-08-25T14:26:47;7.80;;;7.10;;
7621;SDS011;3852;52.284;8.032;2022-08-25T14:29:14;8.33;;;7.53;;
7621;SDS011;3852;52.284;8.032;2022-08-25T14:31:44;8.43;;;7.33;;
7621;SDS011;3852;52.284;8.032;2022-08-25T14:34:13;12.57;;;7.97;;
7621;SDS011;3852;52.284;8.032;2022-08-25T14:36:45;8.67;;;7.20;;
7621;SDS011;3852;52.284;8.032;2022-08-25T14:39:12;8.27;;;7.57;;
7621;SDS011;3852;52.284;8.032;2022-08-25T14:41:39;8.17;;;7.47;;
7621;SDS011;3852;52.284;8.032;2022-08-25T14:44:10;9.23;;;7.07;;
7621;SDS011;3852;52.284;8.032;2022-08-25T14:46:42;11.47;;;7.13;;
7621;SDS011;3852;52.284;8.032;2022-08-25T14:49:16;7.90;;;7.20;;
7621;SDS011;3852;52.284;8.032;2022-08-25T14:51:50;7.97;;;7.23;;
7621;SDS011;3852;52.284;8.032;2022-08-25T14:54:17;7.87;;;7.03;;
7621;SDS011;3852;52.284;8.032;2022-08-25T14:56:46;9.40;;;7.70;;
7621;SDS011;3852;52.284;8.032;2022-08-25T14:59:13;9.47;;;7.30;;
7621;SDS011;3852;52.284;8.032;2022-08-25T15:01:39;7.87;;;7.10;;
7621;SDS011;3852;52.284;8.032;2022-08-25T15:04:07;8.13;;;7.33;;
7621;SDS011;3852;52.284;8.032;2022-08-25T15:06:41;8.07;;;7.27;;
7621;SDS011;3852;52.284;8.032;2022-08-25T15:09:13;7.80;;;7.20;;
7621;SDS011;3852;52.284;8.032;2022-08-25T15:11:42;11.33;;;7.23;;
7621;SDS011;3852;52.284;8.032;2022-08-25T15:14:18;7.30;;;6.43;;
7621;SDS011;3852;52.284;8.032;2022-08-25T15:16:49;8.03;;;7.13;;
7621;SDS011;3852;52.284;8.032;2022-08-25T15:19:22;8.23;;;6.23;;
7621;SDS011;3852;52.284;8.032;2022-08-25T15:21:50;7.30;;;6.60;;
7621;SDS011;3852;52.284;8.032;2022-08-25T15:24:17;10.20;;;6.80;;
7621;SDS011;3852;52.284;8.032;2022-08-25T15:26:47;6.97;;;6.30;;
7621;SDS011;3852;52.284;8.032;2022-08-25T15:29:18;7.73;;;7.00;;
7621;SDS011;3852;52.284;8.032;2022-08-25T15:31:44;7.77;;;7.07;;
7621;SDS011;3852;52.284;8.032;2022-08-25T15:34:11;7.10;;;6.50;;
7621;SDS011;3852;52.284;8.032;2022-08-25T15:36:37;7.10;;;6.50;;
7621;SDS011;3852;52.284;8.032;2022-08-25T15:39:04;9.57;;;6.90;;
7621;SDS011;3852;52.284;8.032;2022-08-25T15:41:31;7.17;;;6.27;;
7621;SDS011;3852;52.284;8.032;2022-08-25T15:43:58;7.63;;;7.03;;
7621;SDS011;3852;52.284;8.032;2022-08-25T15:46:25;7.43;;;6.70;;
7621;SDS011;3852;52.284;8.032;2022-08-25T15:48:54;6.80;;;6.10;;
7621;SDS011;3852;52.284;8.032;2022-08-25T15:51:24;6.80;;;6.20;;
7621;SDS011;3852;52.284;8.032;2022-08-25T15:53:51;7.03;;;6.23;;
7621;SDS011;3852;52.284;8.032;2022-08-25T15:56:17;6.47;;;5.97;;
7621;SDS011;3852;52.284;8.032;2022-08-25T15:58:43;7.20;;;6.40;;
7621;SDS011;3852;52.284;8.032;2022-08-25T16:01:15;6.93;;;6.33;;
7621;SDS011;3852;52.284;8.032;2022-08-25T16:03:47;7.83;;;6.30;;
7621;SDS011;3852;52.284;8.032;2022-08-25T16:06:14;7.47;;;6.77;;
7621;SDS011;3852;52.284;8.032;2022-08-25T16:08:41;7.23;;;6.60;;
7621;SDS011;3852;52.284;8.032;2022-08-25T16:11:18;8.87;;;6.67;;
7621;SDS011;3852;52.284;8.032;2022-08-25T16:13:47;10.20;;;6.83;;
7621;SDS011;3852;52.284;8.032;2022-08-25T16:16:14;6.70;;;6.20;;
7621;SDS011;3852;52.284;8.032;2022-08-25T16:18:41;7.17;;;6.47;;
7621;SDS011;3852;52.284;8.032;2022-08-25T16:21:12;6.87;;;6.17;;
7621;SDS011;3852;52.284;8.032;2022-08-25T16:23:41;7.30;;;6.60;;
7621;SDS011;3852;52.284;8.032;2022-08-25T16:26:08;7.37;;;6.67;;
7621;SDS011;3852;52.284;8.032;2022-08-25T16:28:38;7.13;;;6.27;;
7621;SDS011;3852;52.284;8.032;2022-08-25T16:31:09;9.97;;;7.07;;
7621;SDS011;3852;52.284;8.032;2022-08-25T16:33:37;8.40;;;7.70;;
7621;SDS011;3852;52.284;8.032;2022-08-25T16:36:07;7.60;;;6.70;;
7621;SDS011;3852;52.284;8.032;2022-08-25T16:38:38;7.20;;;6.57;;
7621;SDS011;3852;52.284;8.032;2022-08-25T16:41:06;6.73;;;6.13;;
7621;SDS011;3852;52.284;8.032;2022-08-25T16:43:38;7.60;;;6.77;;
7621;SDS011;3852;52.284;8.032;2022-08-25T16:46:06;7.37;;;6.67;;
7621;SDS011;3852;52.284;8.032;2022-08-25T16:48:35;7.60;;;6.93;;
7621;SDS011;3852;52.284;8.032;2022-08-25T16:51:09;7.00;;;6.30;;
7621;SDS011;3852;52.284;8.032;2022-08-25T16:53:41;8.17;;;6.60;;
7621;SDS011;3852;52.284;8.032;2022-08-25T16:56:27;8.13;;;6.20;;
7621;SDS011;3852;52.284;8.032;2022-08-25T16:58:54;6.73;;;6.10;;
7621;SDS011;3852;52.284;8.032;2022-08-25T17:01:25;6.97;;;6.40;;
7621;SDS011;3852;52.284;8.032;2022-08-25T17:03:53;7.13;;;6.40;;
7621;SDS011;3852;52.284;8.032;2022-08-25T17:06:22;7.13;;;6.27;;
7621;SDS011;3852;52.284;8.032;2022-08-25T17:08:50;7.20;;;6.50;;
7621;SDS011;3852;52.284;8.032;2022-08-25T17:11:20;9.37;;;6.50;;
7621;SDS011;3852;52.284;8.032;2022-08-25T17:13:55;8.00;;;6.43;;
7621;SDS011;3852;52.284;8.032;2022-08-25T17:16:24;7.10;;;6.47;;
7621;SDS011;3852;52.284;8.032;2022-08-25T17:18:54;8.40;;;6.50;;
7621;SDS011;3852;52.284;8.032;2022-08-25T17:21:22;7.87;;;6.60;;
7621;SDS011;3852;52.284;8.032;2022-08-25T17:23:51;6.80;;;6.13;;
7621;SDS011;3852;52.284;8.032;2022-08-25T17:26:22;8.67;;;6.33;;
7621;SDS011;3852;52.284;8.032;2022-08-25T17:28:53;9.53;;;6.60;;
7621;SDS011;3852;52.284;8.032;2022-08-25T17:31:19;8.80;;;6.60;;
7621;SDS011;3852;52.284;8.032;2022-08-25T17:33:45;8.90;;;6.87;;
7621;SDS011;3852;52.284;8.032;2022-08-25T17:36:11;7.67;;;6.93;;
7621;SDS011;3852;52.284;8.032;2022-08-25T17:38:37;7.90;;;7.10;;
7621;SDS011;3852;52.284;8.032;2022-08-25T17:41:05;7.03;;;6.33;;
7621;SDS011;3852;52.284;8.032;2022-08-25T17:43:34;8.27;;;6.57;;
7621;SDS011;3852;52.284;8.032;2022-08-25T17:46:13;6.80;;;6.30;;
7621;SDS011;3852;52.284;8.032;2022-08-25T17:48:39;7.80;;;6.87;;
7621;SDS011;3852;52.284;8.032;2022-08-25T17:51:05;8.83;;;6.97;;
7621;SDS011;3852;52.284;8.032;2022-08-25T17:53:33;7.57;;;6.87;;
7621;SDS011;3852;52.284;8.032;2022-08-25T17:56:04;8.30;;;6.93;;
7621;SDS011;3852;52.284;8.032;2022-08-25T17:58:34;7.60;;;6.63;;
7621;SDS011;3852;52.284;8.032;2022-08-25T18:01:01;7.83;;;6.87;;
7621;SDS011;3852;52.284;8.032;2022-08-25T18:03:28;7.87;;;7.07;;
7621;SDS011;3852;52.284;8.032;2022-08-25T18:05:57;7.20;;;6.60;;
7621;SDS011;3852;52.284;8.032;2022-08-25T18:08:26;8.13;;;6.73;;
7621;SDS011;3852;52.284;8.032;2022-08-25T18:10:52;8.17;;;6.77;;